.
WxDataArchive / Data Records for 2006-02-07
2006-02-06 February 2006 2006-02-08

Data Records for Tuesday, 07 February 2006

Time	Temp	Chill	HIndex	Humid	Dewpt	 Wind 	HiWind	WindDir	Rain 	Barom 
-----	----	-----	------	-----	-----	------	------	-------	-----	----- 
00:00	23.5	23.5	23.5	67	14.2	0	0	---	0.00	30.047 
00:05	23.3	23.3	23.3	67	14.0	0	0	---	0.00	30.047 
00:10	23.0	23.0	23.0	68	14.0	0	0	---	0.00	30.047 
00:15	22.9	22.9	22.9	68	13.9	0	0	---	0.00	30.047 
00:20	22.7	22.7	22.7	68	13.8	0	0	---	0.00	30.047 
00:25	22.5	22.5	22.5	69	13.9	0	0	---	0.00	30.047 
00:30	22.2	22.2	22.2	69	13.6	0	0	---	0.00	30.053 
00:35	21.9	21.9	21.9	70	13.6	0	0	---	0.00	30.053 
00:40	21.6	21.6	21.6	71	13.7	0	0	---	0.00	30.053 
00:45	21.3	21.3	21.3	71	13.4	0	0	---	0.00	30.054 
00:50	21.0	21.0	21.0	72	13.4	0	0	---	0.00	30.054 
00:55	20.6	20.6	20.6	73	13.3	0	0	---	0.00	30.054 
01:00	20.3	20.3	20.3	74	13.4	0	0	---	0.00	30.057 
01:05	20.2	20.2	20.2	75	13.6	0	0	---	0.00	30.057 
01:10	20.0	20.0	20.0	76	13.7	0	0	---	0.00	30.057 
01:15	20.0	20.0	20.0	77	14.0	0	0	---	0.00	30.055 
01:20	19.9	19.9	19.9	77	13.9	0	0	---	0.00	30.055 
01:25	19.7	19.7	19.7	77	13.7	0	0	---	0.00	30.055 
01:30	20.0	20.0	20.0	77	14.0	0	1	248	0.00	30.057 
01:35	20.6	20.6	20.6	76	14.3	0	1	248	0.00	30.057 
01:40	21.1	21.1	21.1	75	14.4	0	1	248	0.00	30.057 
01:45	21.6	21.6	21.6	73	14.3	0	2	248	0.00	30.056 
01:50	21.8	21.8	21.8	73	14.5	0	1	248	0.00	30.056 
01:55	21.9	21.9	21.9	73	14.6	0	1	248	0.00	30.056 
02:00	22.1	22.1	22.1	73	14.8	0	0	---	0.00	30.056 
02:05	22.1	22.1	22.1	72	14.5	0	1	248	0.00	30.056 
02:10	22.1	22.1	22.1	72	14.5	0	0	---	0.00	30.056 
02:15	22.1	22.1	22.1	72	14.5	0	0	---	0.00	30.056 
02:20	22.2	22.2	22.2	72	14.6	0	1	248	0.00	30.056 
02:25	22.4	22.4	22.4	71	14.4	0	1	248	0.00	30.056 
02:30	22.5	22.5	22.5	71	14.5	0	1	248	0.00	30.059 
02:35	22.7	22.7	22.7	71	14.7	0	1	248	0.00	30.059 
02:40	22.9	22.9	22.9	71	14.9	0	1	248	0.00	30.059 
02:45	23.0	23.0	23.0	70	14.7	0	1	248	0.00	30.065 
02:50	23.2	23.2	23.2	70	14.9	0	1	248	0.00	30.065 
02:55	23.3	23.3	23.3	70	15.0	0	1	248	0.00	30.065 
03:00	23.5	23.5	23.5	69	14.9	0	1	248	0.00	30.066 
03:05	23.5	23.5	23.5	69	14.9	0	1	248	0.00	30.066 
03:10	23.6	23.6	23.6	70	15.3	0	1	248	0.00	30.066 
03:15	23.8	23.8	23.8	69	15.1	0	1	248	0.00	30.063 
03:20	23.8	23.8	23.8	69	15.1	0	1	248	0.00	30.063 
03:25	23.9	23.9	23.9	69	15.2	0	1	248	0.00	30.063 
03:30	23.9	23.9	23.9	70	15.6	0	1	248	0.00	30.058 
03:35	24.1	24.1	24.1	69	15.4	0	2	248	0.00	30.058 
03:40	24.1	24.1	24.1	69	15.4	0	1	248	0.00	30.058 
03:45	24.2	24.2	24.2	70	15.9	0	1	248	0.00	30.061 
03:50	24.2	24.2	24.2	70	15.9	0	0	---	0.00	30.061 
03:55	24.2	24.2	24.2	70	15.9	0	1	248	0.00	30.061 
04:00	24.2	24.2	24.2	70	15.9	0	1	248	0.00	30.061 
04:05	24.4	24.4	24.4	70	16.0	0	1	248	0.00	30.061 
04:10	24.4	24.4	24.4	70	16.0	0	1	248	0.00	30.061 
04:15	24.4	24.4	24.4	70	16.0	0	1	248	0.00	30.063 
04:20	24.5	24.5	24.5	70	16.1	0	1	248	0.00	30.063 
04:25	24.7	24.7	24.7	70	16.3	0	2	248	0.00	30.063 
04:30	24.7	24.7	24.7	70	16.3	0	1	248	0.00	30.062 
04:35	24.7	24.7	24.7	70	16.3	0	0	---	0.00	30.062 
04:40	24.7	24.7	24.7	70	16.3	1	2	248	0.00	30.062 
04:45	24.8	24.8	24.8	70	16.4	0	1	248	0.00	30.065 
04:50	24.8	24.8	24.8	70	16.4	0	1	248	0.00	30.065 
04:55	24.8	24.8	24.8	70	16.4	0	1	248	0.00	30.065 
05:00	24.7	24.7	24.7	70	16.3	0	1	248	0.00	30.064 
05:05	24.7	24.7	24.7	70	16.3	0	1	248	0.00	30.064 
05:10	24.7	24.7	24.7	71	16.7	0	1	248	0.00	30.064 
05:15	24.7	24.7	24.7	71	16.7	0	0	---	0.00	30.065 
05:20	24.5	24.5	24.5	71	16.5	0	0	---	0.00	30.065 
05:25	24.4	24.4	24.4	72	16.7	0	0	---	0.00	30.065 
05:30	24.2	24.2	24.2	72	16.5	0	0	---	0.00	30.068 
05:35	24.1	24.1	24.1	72	16.4	0	0	---	0.00	30.068 
05:40	24.1	24.1	24.1	73	16.7	0	1	248	0.00	30.068 
05:45	23.9	23.9	23.9	73	16.5	0	2	248	0.00	30.069 
05:50	24.1	24.1	24.1	73	16.7	0	1	248	0.00	30.069 
05:55	24.1	24.1	24.1	73	16.7	0	0	---	0.00	30.069 
06:00	24.1	24.1	24.1	73	16.7	0	1	248	0.00	30.070 
06:05	24.4	24.4	24.4	73	17.0	1	2	248	0.00	30.070 
06:10	24.7	24.7	24.7	72	17.0	0	2	248	0.00	30.070 
06:15	24.8	24.8	24.8	71	16.8	0	2	248	0.00	30.072 
06:20	25.0	25.0	25.0	71	16.9	1	3	248	0.00	30.072 
06:25	25.3	25.3	25.3	70	16.9	1	3	248	0.00	30.072 
06:30	25.4	25.4	25.4	70	17.0	1	3	248	0.00	30.074 
06:35	25.4	25.4	25.4	70	17.0	1	3	248	0.00	30.074 
06:40	25.4	25.4	25.4	71	17.3	1	3	248	0.00	30.074 
06:45	25.4	25.4	25.4	71	17.3	1	3	248	0.00	30.076 
06:50	25.3	25.3	25.3	71	17.2	1	2	248	0.00	30.076 
06:55	25.1	25.1	25.1	71	17.0	1	3	248	0.00	30.076 
07:00	25.1	25.1	25.1	71	17.0	1	4	248	0.00	30.080 
07:05	25.0	25.0	25.0	71	16.9	1	3	248	0.00	30.080 
07:10	24.8	24.8	24.8	72	17.1	1	3	248	0.00	30.080 
07:15	24.8	24.8	24.8	71	16.8	1	3	248	0.00	30.086 
07:20	24.8	24.8	24.8	71	16.8	1	2	248	0.00	30.086 
07:25	24.8	24.8	24.8	71	16.8	1	2	248	0.00	30.086 
07:30	24.8	24.8	24.8	71	16.8	1	3	248	0.00	30.088 
07:35	24.8	24.8	24.8	71	16.8	1	3	248	0.00	30.088 
07:40	24.8	24.8	24.8	71	16.8	1	4	248	0.00	30.088 
07:45	24.8	24.8	24.8	71	16.8	1	3	248	0.00	30.090 
07:50	24.7	24.7	24.7	71	16.7	1	4	248	0.00	30.090 
07:55	24.7	24.7	24.7	71	16.7	1	2	248	0.00	30.090 
08:00	24.7	24.7	24.7	71	16.7	1	2	248	0.00	30.092 
08:05	24.7	24.7	24.7	72	17.0	0	3	248	0.00	30.092 
08:10	24.5	24.5	24.5	72	16.8	0	1	248	0.00	30.092 
08:15	24.7	24.7	24.7	72	17.0	0	1	248	0.00	30.102 
08:20	24.7	24.7	24.7	72	17.0	1	3	248	0.00	30.102 
08:25	24.8	24.8	24.8	71	16.8	2	4	248	0.00	30.102 
08:30	25.0	25.0	25.0	71	16.9	2	4	248	0.00	30.110 
08:35	25.1	25.1	25.1	70	16.7	2	5	248	0.00	30.110 
08:40	25.3	25.3	25.3	71	17.2	1	4	248	0.00	30.110 
08:45	25.4	25.4	25.4	72	17.7	1	4	248	0.00	30.117 
08:50	25.6	25.6	25.6	70	17.2	1	4	248	0.00	30.117 
08:55	25.6	25.6	25.6	70	17.2	2	6	248	0.00	30.117 
09:00	25.8	25.8	25.8	71	17.7	1	3	248	0.00	30.119 
09:05	26.0	26.0	26.0	70	17.6	1	5	248	0.00	30.119 
09:10	26.1	26.1	26.1	70	17.7	1	4	248	0.00	30.119 
09:15	26.3	26.3	26.3	70	17.9	1	3	248	0.00	30.119 
09:20	26.6	26.6	26.6	69	17.8	1	3	248	0.00	30.119 
09:25	26.7	26.7	26.7	68	17.6	1	3	248	0.00	30.119 
09:30	27.0	27.0	27.0	68	17.9	1	3	248	0.00	30.120 
09:35	27.3	27.3	27.3	68	18.2	1	2	248	0.00	30.120 
09:40	27.6	27.6	27.6	66	17.8	1	4	248	0.00	30.120 
09:45	27.9	27.9	27.9	65	17.7	1	3	248	0.00	30.117 
09:50	28.1	28.1	28.1	66	18.2	1	2	248	0.00	30.117 
09:55	28.2	28.2	28.2	65	18.0	1	3	248	0.00	30.117 
10:00	28.4	28.4	28.4	64	17.8	1	4	270	0.00	30.117 
10:05	28.7	28.7	28.7	65	18.4	1	3	270	0.00	30.117 
10:10	29.1	29.1	29.1	64	18.5	2	4	248	0.00	30.117 
10:15	29.1	29.1	29.1	63	18.1	1	3	248	0.00	30.117 
10:20	29.1	29.1	29.1	64	18.5	1	3	225	0.00	30.117 
10:25	29.1	29.1	29.1	63	18.1	1	3	225	0.00	30.117 
10:30	29.4	29.4	29.4	62	18.0	2	4	270	0.00	30.116 
10:35	29.4	29.4	29.4	62	18.0	2	4	270	0.00	30.116 
10:40	29.5	29.5	29.5	62	18.1	1	3	270	0.00	30.116 
10:45	29.7	29.7	29.7	61	17.9	2	3	248	0.00	30.118 
10:50	29.7	29.7	29.7	60	17.5	2	4	292	0.00	30.118 
10:55	30.0	30.0	30.0	61	18.2	1	4	292	0.00	30.118 
11:00	30.4	30.4	30.4	60	18.2	1	4	315	0.00	30.120 
11:05	30.6	30.6	30.6	57	17.2	1	4	292	0.00	30.120 
11:10	30.4	30.4	30.4	59	17.8	2	4	315	0.00	30.120 
11:15	30.4	30.4	30.4	58	17.4	1	5	315	0.00	30.120 
11:20	30.4	30.4	30.4	56	16.6	2	5	292	0.00	30.120 
11:25	30.3	30.3	30.3	55	16.1	2	4	270	0.00	30.120 
11:30	30.3	30.3	30.3	56	16.5	2	5	338	0.00	30.120 
11:35	30.3	30.3	30.3	56	16.5	2	5	270	0.00	30.120 
11:40	30.3	30.3	30.3	57	16.9	1	4	338	0.00	30.120 
11:45	30.1	30.1	30.1	56	16.3	1	3	338	0.00	30.120 
11:50	30.1	30.1	30.1	58	17.1	1	4	338	0.00	30.120 
11:55	30.4	30.4	30.4	58	17.4	2	7	270	0.00	30.120 
12:00	30.6	30.6	30.6	57	17.2	1	6	315	0.01	30.119 
12:05	30.4	30.4	30.4	56	16.6	2	3	315	0.00	30.119 
12:10	30.3	30.3	30.3	59	17.7	1	5	248	0.00	30.119 
12:15	30.3	30.3	30.3	59	17.7	1	3	248	0.00	30.123 
12:20	30.3	30.3	30.3	60	18.1	1	4	270	0.00	30.123 
12:25	30.1	30.1	30.1	59	17.5	2	4	315	0.00	30.123 
12:30	30.0	30.0	30.0	59	17.4	2	5	270	0.00	30.122 
12:35	29.8	29.8	29.8	58	16.8	2	5	315	0.00	30.122 
12:40	29.8	29.8	29.8	59	17.2	2	5	270	0.00	30.122 
12:45	30.0	30.0	30.0	60	17.8	2	4	270	0.00	30.122 
12:50	30.1	30.1	30.1	60	17.9	2	5	248	0.00	30.122 
12:55	30.3	30.3	30.3	58	17.3	2	4	270	0.00	30.122 
13:00	30.3	30.3	30.3	56	16.5	2	5	270	0.00	30.121 
13:05	30.3	30.3	30.3	56	16.5	2	4	270	0.00	30.121 
13:10	30.4	30.4	30.4	58	17.4	1	3	270	0.00	30.121 
13:15	30.4	30.4	30.4	57	17.0	2	6	270	0.00	30.117 
13:20	30.3	30.3	30.3	56	16.5	2	4	270	0.00	30.117 
13:25	30.1	30.1	30.1	56	16.3	2	6	270	0.00	30.117 
13:30	30.1	30.1	30.1	57	16.7	2	10	270	0.00	30.118 
13:35	30.0	30.0	30.0	58	17.0	2	5	292	0.00	30.118 
13:40	30.1	30.1	30.1	59	17.5	2	4	315	0.00	30.118 
13:45	30.1	30.1	30.1	58	17.1	2	4	315	0.00	30.116 
13:50	30.3	30.3	30.3	58	17.3	2	4	270	0.00	30.116 
13:55	30.4	30.4	30.4	58	17.4	2	7	270	0.00	30.116 
14:00	30.7	30.7	30.7	59	18.1	1	2	248	0.00	30.117 
14:05	30.9	30.9	30.9	58	17.9	2	5	270	0.00	30.117 
14:10	31.0	31.0	31.0	58	18.0	2	4	270	0.00	30.117 
14:15	31.0	31.0	31.0	58	18.0	2	6	270	0.00	30.115 
14:20	31.2	31.2	31.2	57	17.8	2	3	270	0.00	30.115 
14:25	31.0	31.0	31.0	58	18.0	3	9	270	0.00	30.115 
14:30	30.9	30.9	30.9	56	17.1	2	6	270	0.00	30.114 
14:35	30.9	30.9	30.9	57	17.5	1	4	292	0.00	30.114 
14:40	30.9	30.9	30.9	57	17.5	2	4	338	0.00	30.114 
14:45	30.9	30.9	30.9	56	17.1	2	5	270	0.00	30.114 
14:50	30.9	30.9	30.9	57	17.5	2	4	292	0.00	30.114 
14:55	30.9	30.9	30.9	58	17.9	2	4	270	0.00	30.114 
15:00	30.6	30.6	30.6	58	17.6	2	7	270	0.00	30.116 
15:05	30.4	30.4	30.4	57	17.0	2	6	270	0.00	30.116 
15:10	30.3	30.3	30.3	58	17.3	2	4	292	0.00	30.116 
15:15	30.3	30.3	30.3	60	18.1	1	4	315	0.00	30.115 
15:20	30.3	30.3	30.3	60	18.1	2	4	248	0.00	30.115 
15:25	30.4	30.4	30.4	61	18.6	2	5	270	0.00	30.115 
15:30	30.4	30.4	30.4	60	18.2	2	3	248	0.00	30.113 
15:35	30.3	30.3	30.3	59	17.7	2	5	270	0.00	30.113 
15:40	30.3	30.3	30.3	59	17.7	3	5	270	0.00	30.113 
15:45	30.3	30.3	30.3	61	18.5	2	7	270	0.00	30.116 
15:50	30.3	30.3	30.3	60	18.1	3	6	270	0.00	30.116 
15:55	30.3	30.3	30.3	60	18.1	2	7	270	0.00	30.116 
16:00	30.3	30.3	30.3	59	17.7	3	9	270	0.00	30.118 
16:05	30.4	30.4	30.4	60	18.2	2	5	248	0.00	30.118 
16:10	30.6	30.6	30.6	60	18.4	2	6	270	0.00	30.118 
16:15	30.6	30.6	30.6	58	17.6	3	9	270	0.00	30.118 
16:20	30.6	30.6	30.6	58	17.6	3	7	270	0.00	30.118 
16:25	30.6	30.6	30.6	59	18.0	2	5	270	0.00	30.118 
16:30	30.7	30.7	30.7	56	16.9	3	6	270	0.00	30.117 
16:35	30.6	30.6	30.6	56	16.8	3	7	270	0.00	30.117 
16:40	30.4	30.4	30.4	57	17.0	2	5	338	0.00	30.117 
16:45	30.4	30.4	30.4	57	17.0	2	5	270	0.00	30.122 
16:50	30.3	30.3	30.3	57	16.9	2	5	270	0.00	30.122 
16:55	30.1	30.1	30.1	56	16.3	3	7	270	0.00	30.122 
17:00	30.1	30.1	30.1	58	17.1	2	5	292	0.00	30.121 
17:05	30.0	30.0	30.0	58	17.0	2	6	270	0.00	30.121 
17:10	30.0	30.0	30.0	58	17.0	2	7	292	0.00	30.121 
17:15	29.8	29.8	29.8	57	16.4	2	7	315	0.00	30.121 
17:20	29.8	29.8	29.8	57	16.4	2	7	315	0.00	30.121 
17:25	29.7	29.7	29.7	57	16.4	2	5	292	0.00	30.121 
17:30	29.7	29.7	29.7	57	16.4	3	6	270	0.00	30.126 
17:35	29.5	29.5	29.5	57	16.2	2	3	270	0.00	30.126 
17:40	29.5	29.5	29.5	58	16.6	2	4	270	0.00	30.126 
17:45	29.5	29.5	29.5	59	17.0	1	3	292	0.00	30.129 
17:50	29.4	29.4	29.4	59	16.9	1	3	270	0.00	30.129 
17:55	29.3	29.3	29.3	59	16.8	1	4	315	0.00	30.129 
18:00	29.0	29.0	29.0	59	16.5	1	4	292	0.00	30.133 
18:05	28.8	28.8	28.8	59	16.3	1	3	270	0.00	30.133 
18:10	28.7	28.7	28.7	60	16.6	1	4	338	0.00	30.133 
18:15	28.5	28.5	28.5	60	16.4	1	4	270	0.00	30.131 
18:20	28.5	28.5	28.5	60	16.4	1	3	338	0.00	30.131 
18:25	28.4	28.4	28.4	61	16.7	1	3	292	0.00	30.131 
18:30	28.2	28.2	28.2	62	16.9	1	3	0	0.00	30.136 
18:35	28.1	28.1	28.1	61	16.4	1	4	338	0.00	30.136 
18:40	28.1	28.1	28.1	62	16.8	1	3	338	0.00	30.136 
18:45	27.9	27.9	27.9	63	17.0	1	3	338	0.00	30.141 
18:50	27.9	27.9	27.9	63	17.0	1	3	315	0.00	30.141 
18:55	27.8	27.8	27.8	63	16.9	1	3	270	0.00	30.141 
19:00	27.8	27.8	27.8	63	16.9	1	3	248	0.00	30.144 
19:05	27.8	27.8	27.8	63	16.9	1	3	315	0.00	30.144 
19:10	27.6	27.6	27.6	64	17.0	0	3	315	0.00	30.144 
19:15	27.6	27.6	27.6	63	16.7	1	2	292	0.00	30.148 
19:20	27.5	27.5	27.5	64	16.9	1	3	270	0.00	30.148 
19:25	27.3	27.3	27.3	64	16.8	1	3	248	0.00	30.148 
19:30	27.2	27.2	27.2	65	17.0	0	2	248	0.00	30.149 
19:35	27.0	27.0	27.0	65	16.8	0	1	248	0.00	30.149 
19:40	26.9	26.9	26.9	65	16.7	1	3	248	0.00	30.149 
19:45	26.9	26.9	26.9	64	16.4	1	4	248	0.00	30.152 
19:50	26.7	26.7	26.7	65	16.5	0	1	248	0.00	30.152 
19:55	26.6	26.6	26.6	65	16.4	0	2	248	0.00	30.152 
20:00	26.4	26.4	26.4	65	16.3	1	3	248	0.00	30.154 
20:05	26.3	26.3	26.3	65	16.2	1	3	248	0.00	30.154 
20:10	26.1	26.1	26.1	65	16.0	0	2	248	0.00	30.154 
20:15	26.0	26.0	26.0	66	16.2	0	1	248	0.00	30.153 
20:20	25.7	25.7	25.7	66	15.9	0	1	248	0.00	30.153 
20:25	25.6	25.6	25.6	67	16.2	0	1	248	0.00	30.153 
20:30	25.3	25.3	25.3	67	15.9	0	1	248	0.00	30.156 
20:35	25.1	25.1	25.1	67	15.7	0	2	248	0.00	30.156 
20:40	25.1	25.1	25.1	67	15.7	0	1	248	0.00	30.156 
20:45	25.0	25.0	25.0	67	15.6	0	1	248	0.00	30.156 
20:50	24.8	24.8	24.8	67	15.4	0	1	248	0.00	30.156 
20:55	24.8	24.8	24.8	67	15.4	0	1	248	0.00	30.156 
21:00	24.7	24.7	24.7	68	15.7	0	1	248	0.00	30.157 
21:05	24.7	24.7	24.7	67	15.3	1	3	248	0.00	30.157 
21:10	24.8	24.8	24.8	67	15.4	0	2	248	0.00	30.157 
21:15	24.8	24.8	24.8	67	15.4	0	1	248	0.00	30.154 
21:20	24.8	24.8	24.8	67	15.4	0	2	248	0.00	30.154 
21:25	24.8	24.8	24.8	67	15.4	0	2	248	0.00	30.154 
21:30	25.0	25.0	25.0	67	15.6	0	2	248	0.00	30.151 
21:35	25.0	25.0	25.0	67	15.6	0	2	248	0.00	30.151 
21:40	25.0	25.0	25.0	67	15.6	0	2	248	0.00	30.151 
21:45	24.8	24.8	24.8	67	15.4	0	1	248	0.00	30.151 
21:50	24.8	24.8	24.8	68	15.8	0	1	248	0.00	30.151 
21:55	24.8	24.8	24.8	68	15.8	0	2	248	0.00	30.151 
22:00	24.8	24.8	24.8	68	15.8	0	2	248	0.00	30.151 
22:05	24.8	24.8	24.8	68	15.8	0	1	248	0.00	30.151 
22:10	24.8	24.8	24.8	68	15.8	0	1	248	0.00	30.151 
22:15	24.8	24.8	24.8	68	15.8	0	2	248	0.00	30.149 
22:20	25.0	25.0	25.0	68	16.0	0	2	248	0.00	30.149 
22:25	25.0	25.0	25.0	68	16.0	0	2	248	0.00	30.149 
22:30	25.0	25.0	25.0	68	16.0	0	1	292	0.00	30.149 
22:35	25.0	25.0	25.0	68	16.0	1	2	248	0.00	30.149 
22:40	25.0	25.0	25.0	69	16.3	0	2	270	0.00	30.149 
22:45	25.0	25.0	25.0	69	16.3	1	3	270	0.00	30.143 
22:50	25.0	25.0	25.0	69	16.3	0	2	292	0.00	30.143 
22:55	25.0	25.0	25.0	69	16.3	0	1	292	0.00	30.143 
23:00	25.0	25.0	25.0	69	16.3	0	2	292	0.00	30.137 
23:05	25.0	25.0	25.0	70	16.6	0	3	248	0.00	30.137 
23:10	24.8	24.8	24.8	69	16.1	0	2	248	0.00	30.137 
23:15	24.8	24.8	24.8	69	16.1	0	2	248	0.00	30.135 
23:20	24.8	24.8	24.8	70	16.4	0	2	248	0.00	30.135 
23:25	24.8	24.8	24.8	69	16.1	0	2	248	0.00	30.135 
23:30	24.8	24.8	24.8	70	16.4	0	2	248	0.00	30.132 
23:35	24.8	24.8	24.8	70	16.4	0	1	248	0.00	30.132 
23:40	24.8	24.8	24.8	70	16.4	0	1	248	0.00	30.132 
23:45	24.8	24.8	24.8	70	16.4	0	1	248	0.00	30.131 
23:50	24.8	24.8	24.8	70	16.4	0	1	248	0.00	30.131 
23:55	24.8	24.8	24.8	70	16.4	0	2	248	0.00	30.131 

CoCoRaHS
IN-AL-39
A2 Web Hosting
Creative Commons License
GoDaddy
Look for:

loaded 2017-12-11 06:38:24 • last modified 2010-11-18 10:43:29
Privacy PolicyDisclaimer
• wx.awcolley.com is powered by PmWiki v.2002016 •
• all content (unless otherwise noted) © 2017 A W Colley